Detall de PIREP

Printer-friendly versionPDF version

[2013/09/06 15:03:00]
Flight IATA:CT0001
Pilot Number:012
Company ICAO:CAT
Aircraft Type:B744/E
PAX:244
Departing Airport: LEMH
Destination Airport: LEBL
Alternate Airport:LEPA
Online: VATSIM
Route:LUNIK A25 OSTUR
Flight Level:F180
No Slew and time accel
No pause
Crash detect
Detect pilot in Cockpit between each 30 and 45 minutes
15:03 Zero fuel Weight: 463753 Lbs, Fuel Weight: 128811 Lbs
15:03 VATSIM:LEMH 061430Z 14004KT 070V190 9999 FEW025TCU 27/20 Q1013
15:03 VATSIM:LEBL 061430Z 19013KT 9999 FEW020 27/20 Q1012 NOSIG
15:03 VOICE CATALONIAN
15:10 Take-off
15:10 Take off Weight: 590526 Lbs
15:10 Wind: 115º @ 004 Knots Heading: 010º
15:10 POS N39º 52´ 04´´ E004º 13´ 11´´
15:10 Gear Up: 181 Knots
15:10 Flaps:3 at 181 Knots
15:10 Flaps:2 at 200 Knots
15:10 Flaps:1 at 211 Knots
15:11 Flaps:0 at 240 Knots
15:16 TOC
15:16 Fuel Weight: 120463 Lb
15:23 TOD
15:23 Fuel Weight: 118325 Lb
15:25 Wind:241º@028 Knots Heading: 333º Ground Speed: 355 Knots Altitude 15091 ft
15:35 Flaps:2 at 208 Knots
15:35 Flaps:3 at 206 Knots
15:35 Flaps:4 at 203 Knots
15:35 Gear Down: 202 Knots
15:35 Flaps:5 at 203 Knots
15:35 Flaps:4 at 204 Knots
15:36 Flaps:5 at 202 Knots
15:36 Flaps:4 at 200 Knots
15:36 Flaps:5 at 197 Knots
15:36 Flaps:6 at 151 Knots
15:38 TouchDown:Rate -236 ft/min Speed: 146 Knots
15:39 VATSIM:LEBL 061530Z 20012KT 9999 FEW020 27/20 Q1012 NOSIG
15:39 Land
15:39 Wind:200º@013 Knots
15:39 Heading: 245º
15:39 Flight Duration: 00:29
15:39 Landing Weight: 578452 Lbs
15:39 POS N41º 18´ 00´´ E002º 05´ 15´´
15:41 Parking brakes on
15:41 Block to Block Duration: 00:31
15:41 Final Fuel: 114210 Lbls
15:41 Spent Fuel: 14600 Lbls
15:41 Flight Length: 147 NM
15:41 TOD Land Length: 69 NM

Exportar CSV

Powered by Drupal - Modified by Danger4k